createdAt,value
2023-04-10T00:02:09.404Z,18.40
2023-04-10T00:04:36.160Z,13.40
2023-04-10T00:07:02.900Z,10.90
2023-04-10T00:09:30.844Z,11.30
2023-04-10T00:12:04.487Z,10.00
2023-04-10T00:14:31.339Z,9.10
2023-04-10T00:16:58.050Z,12.80
2023-04-10T00:19:24.722Z,9.40
2023-04-10T00:21:51.300Z,10.90
2023-04-10T00:24:17.944Z,12.10
2023-04-10T00:26:44.480Z,12.40
2023-04-10T00:29:11.035Z,14.90
2023-04-10T00:31:37.753Z,15.60
2023-04-10T00:34:04.321Z,13.90
2023-04-10T00:36:31.776Z,17.70
2023-04-10T00:38:59.537Z,14.00
2023-04-10T00:41:26.319Z,16.70
2023-04-10T00:43:59.998Z,14.70
2023-04-10T00:46:27.555Z,17.90
2023-04-10T00:48:55.248Z,15.90
2023-04-10T00:51:23.077Z,17.00
2023-04-10T00:53:51.689Z,15.80
2023-04-10T00:56:19.093Z,14.90
2023-04-10T00:58:45.695Z,13.80
2023-04-10T01:01:13.098Z,17.80
2023-04-10T01:03:41.184Z,18.50
2023-04-10T01:06:42.571Z,17.30
2023-04-10T01:09:20.670Z,12.50
2023-04-10T01:12:26.110Z,15.90
2023-04-10T01:14:55.950Z,17.20
2023-04-10T01:17:32.160Z,13.80
2023-04-10T01:20:08.985Z,17.00
2023-04-10T01:22:50.812Z,17.20
2023-04-10T01:26:09.837Z,17.30
2023-04-10T01:28:46.241Z,20.20
2023-04-10T01:31:18.325Z,21.90
2023-04-10T01:33:50.662Z,19.00
2023-04-10T01:36:26.219Z,17.20
2023-04-10T01:38:54.592Z,18.70
2023-04-10T01:41:24.003Z,17.80
2023-04-10T01:43:53.013Z,18.60
2023-04-10T01:46:21.746Z,19.70
2023-04-10T01:48:50.290Z,19.00
2023-04-10T01:51:17.926Z,18.70
2023-04-10T01:53:46.134Z,22.70
2023-04-10T01:56:13.284Z,23.00
2023-04-10T01:58:44.191Z,22.10
2023-04-10T02:01:22.489Z,19.30
2023-04-10T02:03:55.808Z,20.70
2023-04-10T02:07:00.965Z,21.00
2023-04-10T02:09:49.985Z,22.10
2023-04-10T02:12:22.325Z,23.90
2023-04-10T02:14:50.779Z,21.60
2023-04-10T02:17:28.731Z,22.10
2023-04-10T02:19:59.680Z,20.90
2023-04-10T02:22:27.471Z,21.50
2023-04-10T02:24:54.577Z,21.10
2023-04-10T02:27:31.518Z,25.00
2023-04-10T02:29:59.104Z,28.90
2023-04-10T02:32:26.508Z,28.00
2023-04-10T02:34:53.195Z,23.40
2023-04-10T02:37:19.734Z,23.20
2023-04-10T02:39:46.540Z,24.80
2023-04-10T02:42:13.391Z,22.80
2023-04-10T02:44:40.635Z,25.30
2023-04-10T02:47:07.300Z,24.10
2023-04-10T02:49:37.586Z,22.40
2023-04-10T02:52:10.210Z,26.10
2023-04-10T02:54:37.465Z,24.90
2023-04-10T02:57:04.789Z,22.50
2023-04-10T02:59:31.729Z,19.60
2023-04-10T03:01:58.708Z,18.10
2023-04-10T03:04:25.627Z,20.90
2023-04-10T03:06:52.710Z,18.20
2023-04-10T03:09:19.193Z,15.00
2023-04-10T03:11:45.918Z,15.90
2023-04-10T03:14:13.148Z,16.60
2023-04-10T03:16:39.774Z,17.20
2023-04-10T03:19:06.310Z,18.20
2023-04-10T03:21:32.936Z,18.40
2023-04-10T03:23:59.599Z,17.80
2023-04-10T03:26:26.161Z,19.10
2023-04-10T03:28:53.806Z,19.20
2023-04-10T03:31:20.612Z,18.80
2023-04-10T03:33:47.193Z,19.20
2023-04-10T03:36:13.817Z,17.60
2023-04-10T03:38:40.619Z,18.80
2023-04-10T03:41:08.418Z,17.50
2023-04-10T03:43:35.721Z,16.00
2023-04-10T03:46:03.001Z,15.80
2023-04-10T03:48:30.751Z,17.90
2023-04-10T03:50:57.492Z,18.50
2023-04-10T03:53:24.856Z,21.50
2023-04-10T03:55:52.851Z,17.20
2023-04-10T03:58:20.404Z,15.20
2023-04-10T04:00:47.443Z,16.30
2023-04-10T04:03:21.633Z,14.10
2023-04-10T04:05:48.497Z,20.60
2023-04-10T04:08:41.207Z,21.00
2023-04-10T04:11:22.009Z,18.50
2023-04-10T04:14:04.461Z,17.90
2023-04-10T04:16:50.135Z,19.70
2023-04-10T04:19:42.806Z,18.30
2023-04-10T04:22:22.232Z,20.10
2023-04-10T04:25:08.007Z,20.70
2023-04-10T04:28:01.966Z,22.20
2023-04-10T04:30:34.208Z,20.70
2023-04-10T04:33:17.563Z,18.40
2023-04-10T04:35:57.045Z,19.90
2023-04-10T04:38:35.904Z,19.00
2023-04-10T04:41:34.725Z,18.30
2023-04-10T04:44:16.143Z,19.20
2023-04-10T04:47:11.842Z,18.80
2023-04-10T04:49:50.189Z,18.10
2023-04-10T04:52:28.059Z,18.80
2023-04-10T04:55:19.533Z,20.20
2023-04-10T04:58:12.443Z,20.00
2023-04-10T05:00:53.031Z,19.80
2023-04-10T05:03:26.197Z,19.10
2023-04-10T05:06:14.396Z,19.90
2023-04-10T05:09:09.744Z,22.00
2023-04-10T05:11:55.811Z,23.50
2023-04-10T05:14:46.412Z,23.00
2023-04-10T05:17:39.740Z,21.40
2023-04-10T05:20:34.779Z,20.40
2023-04-10T05:23:21.554Z,18.90
2023-04-10T05:26:07.132Z,19.10
2023-04-10T05:28:50.761Z,17.70
2023-04-10T05:31:40.376Z,18.60
2023-04-10T05:34:12.250Z,12.80
2023-04-10T05:36:59.351Z,12.30
2023-04-10T05:39:43.206Z,11.50
2023-04-10T05:42:21.539Z,11.90
2023-04-10T05:44:55.497Z,11.60
2023-04-10T05:47:38.510Z,12.20
2023-04-10T05:50:29.229Z,14.50
2023-04-10T05:53:35.973Z,12.00
2023-04-10T05:56:21.446Z,16.60
2023-04-10T05:59:06.625Z,17.40
2023-04-10T06:04:26.668Z,13.00
2023-04-10T06:06:55.377Z,12.00
2023-04-10T06:09:21.991Z,11.90
2023-04-10T06:11:48.518Z,10.30
2023-04-10T06:14:19.302Z,9.00
2023-04-10T06:16:46.306Z,8.60
2023-04-10T06:19:12.891Z,8.30
2023-04-10T06:21:39.486Z,8.20
2023-04-10T06:24:06.514Z,7.80
2023-04-10T06:26:33.208Z,7.50
2023-04-10T06:29:00.725Z,7.20
2023-04-10T06:31:27.439Z,6.40
2023-04-10T06:33:55.676Z,7.10
2023-04-10T06:36:22.257Z,6.70
2023-04-10T06:38:55.602Z,7.40
2023-04-10T06:41:22.860Z,7.00
2023-04-10T06:43:54.294Z,7.60
2023-04-10T06:46:21.027Z,6.40
2023-04-10T06:48:47.721Z,7.20
2023-04-10T06:51:14.359Z,7.50
2023-04-10T06:53:40.904Z,6.90
2023-04-10T06:56:08.132Z,7.20
2023-04-10T06:58:34.706Z,6.20
2023-04-10T07:01:04.539Z,6.60
2023-04-10T07:03:32.676Z,6.40
2023-04-10T07:06:02.012Z,4.90
2023-04-10T07:08:28.607Z,5.30
2023-04-10T07:10:56.584Z,4.90
2023-04-10T07:13:25.472Z,4.50
2023-04-10T07:15:52.243Z,4.10
2023-04-10T07:18:19.207Z,4.00
2023-04-10T07:20:45.815Z,3.90
2023-04-10T07:23:12.407Z,4.00
2023-04-10T07:25:42.304Z,3.90
2023-04-10T07:28:08.899Z,3.30
2023-04-10T07:30:35.660Z,3.90
2023-04-10T07:33:02.343Z,3.50
2023-04-10T07:35:29.092Z,3.20
2023-04-10T07:37:55.700Z,3.30
2023-04-10T07:40:22.329Z,3.00
2023-04-10T07:42:48.895Z,2.90
2023-04-10T07:45:15.523Z,3.00
2023-04-10T07:47:42.125Z,3.10
2023-04-10T07:50:09.196Z,2.40
2023-04-10T07:52:36.036Z,2.70
2023-04-10T07:55:03.778Z,2.60
2023-04-10T07:57:32.236Z,3.20
2023-04-10T07:59:59.239Z,3.20
2023-04-10T08:02:26.130Z,2.90
2023-04-10T08:04:53.212Z,2.80
2023-04-10T08:07:22.413Z,2.80
2023-04-10T08:09:49.041Z,2.90
2023-04-10T08:12:16.182Z,3.30
2023-04-10T08:14:43.682Z,2.90
2023-04-10T08:17:14.930Z,3.50
2023-04-10T08:19:43.380Z,2.70
2023-04-10T08:22:10.374Z,2.90
2023-04-10T08:24:36.949Z,2.60
2023-04-10T08:27:03.661Z,2.30
2023-04-10T08:29:30.270Z,2.10
2023-04-10T08:32:00.530Z,2.20
2023-04-10T08:34:27.729Z,2.40
2023-04-10T08:36:54.909Z,2.10
2023-04-10T08:39:21.490Z,2.20
2023-04-10T08:41:48.017Z,2.60
2023-04-10T08:44:14.703Z,2.20
2023-04-10T08:46:45.451Z,2.10
2023-04-10T08:49:29.746Z,2.20
2023-04-10T08:51:58.938Z,2.10
2023-04-10T08:56:56.006Z,2.60
2023-04-10T08:59:23.110Z,2.60
2023-04-10T09:01:49.749Z,2.60
2023-04-10T09:04:19.721Z,2.70
2023-04-10T09:06:46.841Z,2.10
2023-04-10T09:09:13.381Z,2.20
2023-04-10T09:11:52.246Z,2.00
2023-04-10T09:14:23.131Z,1.90
2023-04-10T09:16:51.451Z,2.00
2023-04-10T09:19:32.311Z,1.80
2023-04-10T09:21:59.518Z,2.20
2023-04-10T09:24:27.038Z,1.60
2023-04-10T09:26:54.323Z,2.30
2023-04-10T09:29:20.886Z,1.60
2023-04-10T09:31:47.618Z,1.60
2023-04-10T09:34:22.753Z,1.60
2023-04-10T09:37:01.388Z,2.10
2023-04-10T09:39:35.746Z,1.70
2023-04-10T09:42:02.998Z,1.60
2023-04-10T09:44:34.535Z,2.40
2023-04-10T09:47:18.248Z,1.70
2023-04-10T09:49:48.646Z,1.40
2023-04-10T09:52:19.905Z,1.70
2023-04-10T09:54:46.669Z,1.60
2023-04-10T09:57:19.262Z,1.80
2023-04-10T09:59:54.304Z,1.90
2023-04-10T10:02:23.600Z,1.90
2023-04-10T10:04:51.577Z,1.80
2023-04-10T10:07:23.768Z,1.80
2023-04-10T10:09:52.672Z,1.70
2023-04-10T10:12:24.218Z,1.70
2023-04-10T10:15:14.234Z,1.90
2023-04-10T10:17:51.474Z,1.90
2023-04-10T10:20:22.164Z,2.00
2023-04-10T10:22:50.293Z,1.90
2023-04-10T10:25:19.919Z,2.00
2023-04-10T10:27:48.032Z,2.20
2023-04-10T10:30:28.730Z,1.50
2023-04-10T10:32:57.894Z,2.00
2023-04-10T10:35:30.829Z,1.70
2023-04-10T10:38:02.385Z,2.00
2023-04-10T10:40:54.954Z,1.70
2023-04-10T10:43:55.846Z,2.10
2023-04-10T10:46:42.179Z,2.10
2023-04-10T10:49:08.807Z,2.00
2023-04-10T10:51:50.235Z,1.90
2023-04-10T10:54:34.606Z,2.50
2023-04-10T10:57:02.177Z,2.30
2023-04-10T10:59:43.996Z,2.10
2023-04-10T11:02:18.433Z,2.10
2023-04-10T11:04:47.267Z,1.90
2023-04-10T11:07:15.744Z,2.10
2023-04-10T11:09:47.515Z,2.00
2023-04-10T11:12:15.582Z,2.50
2023-04-10T11:14:43.639Z,2.10
2023-04-10T11:17:11.738Z,2.20
2023-04-10T11:20:01.478Z,2.90
2023-04-10T11:22:28.146Z,2.80
2023-04-10T11:25:00.024Z,2.30
2023-04-10T11:27:40.565Z,2.50
2023-04-10T11:30:31.504Z,2.40
2023-04-10T11:33:00.590Z,1.80
2023-04-10T11:35:28.951Z,2.10
2023-04-10T11:38:08.842Z,2.30
2023-04-10T11:40:35.521Z,2.30
2023-04-10T11:43:15.226Z,2.50
2023-04-10T11:45:42.139Z,2.40
2023-04-10T11:48:09.312Z,2.40
2023-04-10T11:50:36.267Z,2.60
2023-04-10T11:53:17.928Z,2.30
2023-04-10T11:55:44.476Z,2.00
2023-04-10T11:58:28.202Z,2.50
2023-04-10T12:00:58.563Z,2.40
2023-04-10T12:03:36.981Z,2.40
2023-04-10T12:06:06.482Z,2.00
2023-04-10T12:08:35.491Z,2.60
2023-04-10T12:11:03.486Z,2.30
2023-04-10T12:13:31.277Z,2.80
2023-04-10T12:16:01.079Z,2.50
2023-04-10T12:18:30.729Z,2.40
2023-04-10T12:23:27.141Z,2.80
2023-04-10T12:26:07.841Z,2.40
2023-04-10T12:28:34.667Z,2.80
2023-04-10T12:31:01.371Z,2.80
2023-04-10T12:33:27.960Z,2.50
2023-04-10T12:35:54.874Z,2.70
2023-04-10T12:38:42.031Z,2.60
2023-04-10T12:41:12.638Z,2.10
2023-04-10T12:43:42.220Z,2.40
2023-04-10T12:46:10.878Z,2.70
2023-04-10T12:48:37.775Z,2.80
2023-04-10T12:51:04.888Z,2.70
2023-04-10T12:53:31.880Z,2.90
2023-04-10T12:56:06.611Z,2.50
2023-04-10T12:58:33.247Z,2.90
2023-04-10T13:01:04.358Z,2.60
2023-04-10T13:03:33.474Z,2.80
2023-04-10T13:06:00.294Z,2.80
2023-04-10T13:08:26.948Z,3.00
2023-04-10T13:10:55.039Z,2.60
2023-04-10T13:13:21.636Z,2.60
2023-04-10T13:15:49.580Z,2.40
2023-04-10T13:18:16.307Z,2.20
2023-04-10T13:20:43.076Z,2.30
2023-04-10T13:23:10.003Z,2.50
2023-04-10T13:25:43.024Z,2.20
2023-04-10T13:28:12.564Z,2.50
2023-04-10T13:33:08.869Z,2.90
2023-04-10T13:35:35.916Z,2.50
2023-04-10T13:38:02.587Z,2.30
2023-04-10T13:40:29.185Z,2.40
2023-04-10T13:42:55.774Z,2.20
2023-04-10T13:45:22.656Z,2.60
2023-04-10T13:47:49.279Z,2.20
2023-04-10T13:50:15.961Z,2.40
2023-04-10T13:52:42.560Z,2.30
2023-04-10T13:55:10.064Z,1.90
2023-04-10T13:57:36.746Z,2.40
2023-04-10T14:00:04.667Z,2.50
2023-04-10T14:02:39.415Z,2.20
2023-04-10T14:05:06.756Z,2.40
2023-04-10T14:07:33.255Z,2.70
2023-04-10T14:10:03.280Z,2.00
2023-04-10T14:12:29.977Z,1.80
2023-04-10T14:14:56.985Z,11.10
2023-04-10T14:17:23.989Z,2.50
2023-04-10T14:19:52.414Z,2.20
2023-04-10T14:22:19.158Z,1.90
2023-04-10T14:24:46.194Z,2.10
2023-04-10T14:27:13.543Z,2.40
2023-04-10T14:32:09.446Z,2.00
2023-04-10T14:34:36.194Z,2.00
2023-04-10T14:37:02.801Z,2.00
2023-04-10T14:39:29.453Z,2.70
2023-04-10T14:41:56.997Z,2.40
2023-04-10T14:44:23.630Z,2.30
2023-04-10T14:46:52.628Z,2.60
2023-04-10T14:49:19.205Z,2.80
2023-04-10T14:51:48.354Z,2.70
2023-04-10T14:54:16.841Z,2.80
2023-04-10T14:56:43.857Z,2.60
2023-04-10T14:59:11.569Z,2.40
2023-04-10T15:01:38.315Z,2.30
2023-04-10T15:04:05.021Z,2.60
2023-04-10T15:06:33.645Z,2.80
2023-04-10T15:09:00.356Z,2.80
2023-04-10T15:11:26.991Z,2.50
2023-04-10T15:13:53.803Z,2.50
2023-04-10T15:16:21.167Z,3.10
2023-04-10T15:18:49.418Z,6.40
2023-04-10T15:21:16.735Z,6.40
2023-04-10T15:23:43.391Z,3.50
2023-04-10T15:26:14.541Z,2.50
2023-04-10T15:28:43.231Z,2.40
2023-04-10T15:31:11.312Z,2.40
2023-04-10T15:33:39.370Z,1.90
2023-04-10T15:36:08.089Z,2.20
2023-04-10T15:38:36.139Z,2.40
2023-04-10T15:41:12.722Z,2.10
2023-04-10T15:43:39.412Z,2.60
2023-04-10T15:46:06.419Z,2.30
2023-04-10T15:48:33.073Z,2.10
2023-04-10T15:51:04.797Z,2.20
2023-04-10T15:53:31.836Z,2.10
2023-04-10T15:55:58.808Z,2.20
2023-04-10T15:58:25.647Z,2.40
2023-04-10T16:00:52.256Z,3.00
2023-04-10T16:03:19.008Z,2.60
2023-04-10T16:05:45.746Z,2.80
2023-04-10T16:08:12.327Z,2.60
2023-04-10T16:10:38.909Z,2.90
2023-04-10T16:13:06.802Z,2.80
2023-04-10T16:15:36.167Z,3.30
2023-04-10T16:18:04.495Z,3.20
2023-04-10T16:20:31.934Z,4.10
2023-04-10T16:22:59.904Z,4.00
2023-04-10T16:25:27.648Z,4.30
2023-04-10T16:27:55.556Z,3.10
2023-04-10T16:30:22.755Z,3.00
2023-04-10T16:32:49.452Z,2.70
2023-04-10T16:35:18.126Z,2.70
2023-04-10T16:37:48.017Z,3.90
2023-04-10T16:40:14.714Z,4.80
2023-04-10T16:42:42.886Z,5.10
2023-04-10T16:45:10.346Z,4.70
2023-04-10T16:47:37.931Z,5.00
2023-04-10T16:50:06.024Z,4.00
2023-04-10T16:52:32.713Z,4.00
2023-04-10T16:54:59.549Z,4.40
2023-04-10T16:57:26.276Z,4.70
2023-04-10T16:59:59.154Z,6.30
2023-04-10T17:02:27.006Z,10.20
2023-04-10T17:04:55.237Z,9.30
2023-04-10T17:07:23.266Z,11.10
2023-04-10T17:09:50.807Z,10.60
2023-04-10T17:12:17.573Z,10.90
2023-04-10T17:14:44.532Z,9.90
2023-04-10T17:17:11.609Z,8.70
2023-04-10T17:19:38.759Z,10.00
2023-04-10T17:22:15.425Z,9.40
2023-04-10T17:24:45.148Z,9.00
2023-04-10T17:27:12.036Z,14.90
2023-04-10T17:29:39.016Z,17.60
2023-04-10T17:32:07.339Z,18.10
2023-04-10T17:34:34.144Z,15.10
2023-04-10T17:37:01.227Z,12.50
2023-04-10T17:39:27.833Z,10.10
2023-04-10T17:41:54.682Z,10.00
2023-04-10T17:44:21.307Z,10.40
2023-04-10T17:46:48.244Z,10.70
2023-04-10T17:49:15.003Z,9.70
2023-04-10T17:51:41.999Z,9.80
2023-04-10T17:54:08.847Z,11.20
2023-04-10T17:56:35.736Z,12.30
2023-04-10T17:59:02.844Z,16.70
2023-04-10T18:01:31.115Z,19.10
2023-04-10T18:03:59.183Z,14.10
2023-04-10T18:06:26.443Z,12.00
2023-04-10T18:08:53.385Z,11.20
2023-04-10T18:11:20.223Z,11.10
2023-04-10T18:13:46.888Z,11.10
2023-04-10T18:16:13.645Z,12.50
2023-04-10T18:18:42.284Z,12.40
2023-04-10T18:21:10.842Z,13.60
2023-04-10T18:23:38.123Z,14.20
2023-04-10T18:26:04.670Z,16.20
2023-04-10T18:28:31.997Z,17.20
2023-04-10T18:30:59.424Z,23.60
2023-04-10T18:33:26.500Z,17.80
2023-04-10T18:35:57.223Z,14.00
2023-04-10T18:38:24.756Z,13.90
2023-04-10T18:40:54.885Z,14.00
2023-04-10T18:43:21.676Z,18.80
2023-04-10T18:45:50.087Z,26.80
2023-04-10T18:48:17.492Z,37.10
2023-04-10T18:50:44.508Z,32.60
2023-04-10T18:53:11.096Z,34.60
2023-04-10T18:55:37.847Z,43.10
2023-04-10T18:58:04.441Z,41.80
2023-04-10T19:00:32.059Z,36.30
2023-04-10T19:02:58.779Z,54.80
2023-04-10T19:05:25.780Z,71.80
2023-04-10T19:08:02.929Z,76.40
2023-04-10T19:10:30.876Z,72.50
2023-04-10T19:12:57.569Z,78.70
2023-04-10T19:15:25.173Z,81.20
2023-04-10T19:17:54.790Z,66.80
2023-04-10T19:20:48.905Z,73.30
2023-04-10T19:23:09.496Z,61.90
2023-04-10T19:25:36.239Z,59.80
2023-04-10T19:28:02.870Z,67.00
2023-04-10T19:30:30.820Z,75.30
2023-04-10T19:32:57.638Z,60.20
2023-04-10T19:35:24.371Z,55.90
2023-04-10T19:37:51.471Z,65.60
2023-04-10T19:40:21.694Z,61.80
2023-04-10T19:42:48.274Z,48.70
2023-04-10T19:45:15.443Z,47.30
2023-04-10T19:47:42.119Z,42.60
2023-04-10T19:50:09.024Z,50.50
2023-04-10T19:52:35.749Z,45.60
2023-04-10T19:55:02.549Z,44.70
2023-04-10T19:57:29.252Z,47.30
2023-04-10T19:59:56.146Z,54.40
2023-04-10T20:02:23.037Z,58.40
2023-04-10T20:04:50.097Z,71.40
2023-04-10T20:07:16.822Z,85.80
2023-04-10T20:09:43.442Z,58.20
2023-04-10T20:12:10.041Z,67.40
2023-04-10T20:14:36.728Z,59.40
2023-04-10T20:17:03.393Z,53.20
2023-04-10T20:19:30.126Z,53.70
2023-04-10T20:21:56.900Z,51.30
2023-04-10T20:24:23.556Z,49.60
2023-04-10T20:26:50.206Z,46.00
2023-04-10T20:29:16.944Z,46.10
2023-04-10T20:31:44.137Z,44.70
2023-04-10T20:34:10.985Z,44.40
2023-04-10T20:36:37.672Z,44.80
2023-04-10T20:39:04.708Z,67.40
2023-04-10T20:41:31.750Z,54.30
2023-04-10T20:43:58.589Z,77.30
2023-04-10T20:46:27.499Z,60.30
2023-04-10T20:48:55.960Z,57.20
2023-04-10T20:51:22.935Z,51.70
2023-04-10T20:53:49.629Z,52.70
2023-04-10T20:56:16.541Z,75.40
2023-04-10T20:58:43.314Z,90.00
2023-04-10T21:01:10.919Z,70.80
2023-04-10T21:03:37.882Z,59.70
2023-04-10T21:06:05.721Z,66.50
2023-04-10T21:08:32.725Z,66.60
2023-04-10T21:10:59.722Z,58.40
2023-04-10T21:13:26.811Z,57.80
2023-04-10T21:15:53.801Z,56.50
2023-04-10T21:18:21.630Z,60.60
2023-04-10T21:20:48.453Z,67.70
2023-04-10T21:23:15.336Z,64.30
2023-04-10T21:25:51.620Z,66.70
2023-04-10T21:28:18.707Z,77.10
2023-04-10T21:30:45.443Z,61.10
2023-04-10T21:33:12.254Z,68.00
2023-04-10T21:35:42.135Z,72.20
2023-04-10T21:40:35.676Z,73.20
2023-04-10T21:43:03.685Z,66.90
2023-04-10T21:45:31.445Z,65.70
2023-04-10T21:48:00.021Z,62.30
2023-04-10T21:50:26.876Z,60.70
2023-04-10T21:52:53.644Z,58.10
2023-04-10T21:55:20.533Z,54.40
2023-04-10T21:57:47.155Z,53.50
2023-04-10T22:00:14.575Z,54.50
2023-04-10T22:02:41.528Z,55.60
2023-04-10T22:05:08.476Z,52.40
2023-04-10T22:07:35.367Z,55.70
2023-04-10T22:10:02.045Z,56.80
2023-04-10T22:12:28.609Z,57.10
2023-04-10T22:14:55.575Z,59.50
2023-04-10T22:17:22.543Z,57.00
2023-04-10T22:19:49.412Z,61.60
2023-04-10T22:22:17.128Z,62.10
2023-04-10T22:24:43.885Z,62.90
2023-04-10T22:27:11.056Z,58.30
2023-04-10T22:29:37.769Z,60.40
2023-04-10T22:32:04.490Z,63.10
2023-04-10T22:34:31.146Z,62.00
2023-04-10T22:36:58.046Z,56.30
2023-04-10T22:39:24.851Z,57.00
2023-04-10T22:41:51.450Z,53.10
2023-04-10T22:44:18.015Z,55.10
2023-04-10T22:46:48.226Z,51.60
2023-04-10T22:49:17.730Z,53.90
2023-04-10T22:51:47.165Z,52.70
2023-04-10T22:54:15.991Z,47.60
2023-04-10T22:56:44.181Z,48.60
2023-04-10T22:59:10.879Z,46.10
2023-04-10T23:01:37.592Z,48.20
2023-04-10T23:04:04.380Z,46.90
2023-04-10T23:06:32.542Z,46.40
2023-04-10T23:08:59.141Z,44.10
2023-04-10T23:11:25.722Z,42.80
2023-04-10T23:13:52.323Z,41.30
2023-04-10T23:16:18.959Z,37.70
2023-04-10T23:18:45.611Z,45.50
2023-04-10T23:21:12.211Z,50.50
2023-04-10T23:23:38.725Z,57.60
2023-04-10T23:26:05.711Z,57.80
2023-04-10T23:28:32.287Z,52.70
2023-04-10T23:30:58.953Z,52.10
2023-04-10T23:33:25.508Z,50.70
2023-04-10T23:35:52.114Z,48.00
2023-04-10T23:38:18.735Z,47.20
2023-04-10T23:40:45.337Z,45.90
2023-04-10T23:43:11.955Z,43.10
2023-04-10T23:45:38.857Z,42.00
2023-04-10T23:48:08.956Z,43.80
2023-04-10T23:50:35.524Z,43.40
2023-04-10T23:53:02.174Z,43.90
2023-04-10T23:55:28.851Z,44.20
2023-04-10T23:57:55.448Z,42.40
